Time;durP1;ratioP1;P1;durP2;ratioP2;P2;SDS_P1;SDS_P2;PMS_P1;PMS_P2;Temp;Humidity;BMP_temperature;BMP_pressure;BME280_temperature;BME280_humidity;BME280_pressure;Samples;Min_cycle;Max_cycle;Signal;HPM_P1;HPM_P2
2021/01/31 00:00:54;;;;;;;6.03;4.47;;;1.60;99.90;;;;;;5032700;28;20227;-65
2021/01/31 00:03:25;;;;;;;6.60;4.97;;;1.60;99.90;;;;;;5033375;28;20167;-65
2021/01/31 00:05:52;;;;;;;5.90;4.77;;;1.60;99.90;;;;;;5034165;28;20228;-65
2021/01/31 00:08:20;;;;;;;5.53;4.47;;;1.50;99.90;;;;;;5047239;28;20191;-65
2021/01/31 00:10:46;;;;;;;6.77;5.03;;;1.40;99.90;;;;;;5033797;28;20262;-65
2021/01/31 00:13:13;;;;;;;5.27;4.27;;;1.40;99.90;;;;;;5034382;28;20175;-66
2021/01/31 00:15:42;;;;;;;5.77;4.70;;;1.40;99.90;;;;;;5053586;28;20194;-65
2021/01/31 00:18:09;;;;;;;5.83;5.00;;;1.30;99.90;;;;;;5053151;28;20194;-64
2021/01/31 00:20:36;;;;;;;4.43;4.03;;;1.30;99.90;;;;;;5053024;28;20171;-66
2021/01/31 00:23:04;;;;;;;5.80;4.27;;;1.30;99.90;;;;;;5053743;28;20636;-65
2021/01/31 00:25:30;;;;;;;4.97;4.47;;;1.20;99.90;;;;;;5034547;28;20257;-65
2021/01/31 00:27:55;;;;;;;6.33;4.53;;;1.20;99.90;;;;;;5033226;28;20179;-65
2021/01/31 00:30:27;;;;;;;5.23;4.47;;;1.20;99.90;;;;;;5050021;28;20211;-65
2021/01/31 00:32:53;;;;;;;4.93;4.23;;;1.20;99.90;;;;;;5053498;28;20600;-65
2021/01/31 00:35:22;;;;;;;6.07;5.13;;;1.10;99.90;;;;;;5036144;28;20258;-65
2021/01/31 00:37:48;;;;;;;7.30;4.87;;;1.10;99.90;;;;;;5032872;28;20187;-65
2021/01/31 00:40:14;;;;;;;6.60;4.80;;;1.10;99.90;;;;;;5047937;28;20253;-65
2021/01/31 00:42:40;;;;;;;6.20;4.80;;;1.10;99.90;;;;;;5053087;28;20174;-65
2021/01/31 00:45:09;;;;;;;6.63;5.03;;;1.10;99.90;;;;;;5039874;28;20567;-66
2021/01/31 00:47:35;;;;;;;6.60;5.10;;;1.10;99.90;;;;;;5032567;28;20203;-65
2021/01/31 00:50:01;;;;;;;6.27;4.80;;;1.10;99.90;;;;;;5044895;28;20179;-64
2021/01/31 00:52:26;;;;;;;6.53;5.07;;;1.10;99.90;;;;;;5053193;28;20215;-66
2021/01/31 00:54:52;;;;;;;8.23;4.73;;;1.10;99.90;;;;;;5042607;28;20195;-66
2021/01/31 00:57:18;;;;;;;7.30;5.13;;;1.10;99.90;;;;;;5032416;28;20199;-63
2021/01/31 00:59:44;;;;;;;4.87;4.33;;;1.10;99.90;;;;;;5040839;28;20263;-65
2021/01/31 01:02:16;;;;;;;5.23;4.73;;;1.10;99.90;;;;;;5052903;28;20670;-66
2021/01/31 01:04:44;;;;;;;6.80;4.90;;;1.10;99.90;;;;;;5044820;28;20582;-66
2021/01/31 01:07:09;;;;;;;6.73;4.63;;;1.10;99.90;;;;;;5031965;28;20192;-64
2021/01/31 01:09:35;;;;;;;5.90;4.83;;;1.00;99.90;;;;;;5038590;28;20673;-65
2021/01/31 01:12:00;;;;;;;6.80;4.77;;;1.00;99.90;;;;;;5052725;28;20179;-65
2021/01/31 01:14:26;;;;;;;5.90;4.33;;;1.00;99.90;;;;;;5047909;28;20557;-65
2021/01/31 01:16:52;;;;;;;5.47;4.70;;;1.00;99.90;;;;;;5032542;28;20266;-66
2021/01/31 01:19:17;;;;;;;6.57;4.90;;;1.00;99.90;;;;;;5034799;28;20215;-64
2021/01/31 01:21:43;;;;;;;4.80;4.07;;;1.00;99.90;;;;;;5052256;28;20175;-65
2021/01/31 01:24:09;;;;;;;5.00;4.50;;;0.90;99.90;;;;;;5035848;28;20551;-65
2021/01/31 01:26:34;;;;;;;6.27;4.33;;;0.90;99.90;;;;;;5032409;28;20223;-66
2021/01/31 01:29:00;;;;;;;5.07;4.50;;;0.90;99.90;;;;;;5046838;28;20190;-65
2021/01/31 01:31:25;;;;;;;5.90;4.90;;;0.90;99.90;;;;;;5052227;28;20224;-66
2021/01/31 01:33:51;;;;;;;5.90;4.80;;;0.90;99.90;;;;;;5039129;28;20186;-65
2021/01/31 01:36:19;;;;;;;5.20;4.53;;;0.80;99.90;;;;;;5032348;28;20171;-65
2021/01/31 01:38:44;;;;;;;5.57;4.60;;;0.80;99.90;;;;;;5043067;28;20690;-65
2021/01/31 01:41:11;;;;;;;6.73;4.93;;;0.80;99.90;;;;;;5052237;28;20198;-64
2021/01/31 01:43:36;;;;;;;5.17;4.60;;;0.80;99.90;;;;;;5041773;28;20551;-65
2021/01/31 01:46:07;;;;;;;6.20;5.30;;;0.80;99.90;;;;;;5031910;28;20177;-64
2021/01/31 01:48:34;;;;;;;5.33;4.53;;;0.80;99.90;;;;;;5038827;28;20209;-66
2021/01/31 01:51:00;;;;;;;6.10;4.87;;;0.70;99.90;;;;;;5052153;28;20250;-66
2021/01/31 01:53:26;;;;;;;5.27;4.47;;;0.70;99.90;;;;;;5044174;28;20267;-65
2021/01/31 01:56:13;;;;;;;6.43;4.50;;;0.70;99.90;;;;;;5031855;28;20167;-65
2021/01/31 01:58:40;;;;;;;5.07;4.40;;;0.60;99.90;;;;;;5039487;28;20263;-65
2021/01/31 02:01:08;;;;;;;6.70;4.30;;;0.60;99.90;;;;;;5051992;28;20215;-65
2021/01/31 02:03:36;;;;;;;5.23;4.73;;;0.60;99.90;;;;;;5043952;28;20171;-65
2021/01/31 02:06:07;;;;;;;5.00;4.50;;;0.50;99.90;;;;;;5031785;28;20178;-65
2021/01/31 02:08:33;;;;;;;7.17;5.10;;;0.40;99.90;;;;;;5032448;28;20222;-64
2021/01/31 02:10:59;;;;;;;7.47;5.40;;;0.40;99.90;;;;;;5031716;28;20660;-64
2021/01/31 02:13:25;;;;;;;6.27;4.80;;;0.30;99.90;;;;;;5036479;28;20186;-65
2021/01/31 02:15:56;;;;;;;6.73;5.23;;;0.30;99.90;;;;;;5051782;28;20194;-64
2021/01/31 02:18:52;;;;;;;7.17;5.63;;;0.20;99.90;;;;;;5046892;28;20200;-65
2021/01/31 02:21:50;;;;;;;8.67;5.27;;;0.20;99.90;;;;;;5031674;28;20389;-64
2021/01/31 02:24:53;;;;;;;6.67;5.40;;;0.10;99.90;;;;;;5042477;28;20182;-64
2021/01/31 02:27:46;;;;;;;6.23;5.37;;;0.00;99.90;;;;;;5051507;28;20709;-65
2021/01/31 02:30:46;;;;;;;8.83;5.23;;;-0.10;99.90;;;;;;5033577;28;20176;-64
2021/01/31 02:33:33;;;;;;;6.67;5.63;;;-0.10;99.90;;;;;;5032725;28;20172;-64
2021/01/31 02:36:08;;;;;;;7.17;5.50;;;-0.20;99.90;;;;;;5051706;28;20258;-65
2021/01/31 02:39:03;;;;;;;6.70;5.30;;;-0.20;99.90;;;;;;5047358;28;20195;-65
2021/01/31 02:41:34;;;;;;;8.20;5.67;;;-0.30;99.90;;;;;;5013835;28;20583;-65
2021/01/31 02:44:07;;;;;;;6.07;5.00;;;-0.30;99.90;;;;;;5038211;28;20186;-65
2021/01/31 02:46:42;;;;;;;7.57;5.33;;;-0.30;99.90;;;;;;5051298;28;20167;-65
2021/01/31 02:49:18;;;;;;;7.93;5.77;;;-0.30;99.90;;;;;;5049712;28;20542;-65
2021/01/31 02:52:12;;;;;;;8.30;5.13;;;-0.40;99.90;;;;;;5051383;28;20232;-65
2021/01/31 02:54:57;;;;;;;6.50;5.07;;;-0.40;99.90;;;;;;5032397;28;20200;-65
2021/01/31 02:57:31;;;;;;;6.50;4.90;;;-0.40;99.90;;;;;;5031217;28;20214;-65
2021/01/31 03:00:09;;;;;;;7.13;5.70;;;-0.50;99.90;;;;;;5030666;28;20215;-64
2021/01/31 03:02:45;;;;;;;8.37;5.43;;;-0.50;99.90;;;;;;5015912;28;20198;-65
2021/01/31 03:05:16;;;;;;;10.07;4.87;;;-0.50;99.90;;;;;;5015535;28;20173;-65
2021/01/31 03:07:50;;;;;;;9.33;5.13;;;-0.50;99.90;;;;;;5015357;28;20716;-65
2021/01/31 03:10:37;;;;;;;8.30;5.30;;;-0.50;99.90;;;;;;5055268;28;20193;-65
2021/01/31 03:13:24;;;;;;;5.67;4.93;;;-0.50;99.90;;;;;;5052315;28;20195;-65
2021/01/31 03:16:06;;;;;;;6.73;5.20;;;-0.60;99.90;;;;;;5035179;28;20198;-65
2021/01/31 03:18:46;;;;;;;8.43;5.73;;;-0.60;99.90;;;;;;5040574;28;20198;-65
2021/01/31 03:21:19;;;;;;;8.60;5.60;;;-0.60;99.90;;;;;;5055013;28;20170;-65
2021/01/31 03:24:19;;;;;;;7.77;5.67;;;-0.60;99.90;;;;;;5034874;28;20195;-65
2021/01/31 03:26:57;;;;;;;6.13;4.97;;;-0.60;99.90;;;;;;5029135;28;20207;-64
2021/01/31 03:29:23;;;;;;;8.27;6.70;;;-0.70;99.90;;;;;;5054654;28;20586;-65
2021/01/31 03:31:57;;;;;;;6.70;5.17;;;-0.70;99.90;;;;;;5052251;28;20504;-65
2021/01/31 03:34:32;;;;;;;6.57;5.57;;;-0.70;99.90;;;;;;5035159;28;20542;-63
2021/01/31 03:37:03;;;;;;;7.60;6.37;;;-0.80;99.90;;;;;;5037319;28;20204;-65
2021/01/31 03:39:31;;;;;;;8.13;6.13;;;-0.90;99.90;;;;;;5054530;28;20297;-65
2021/01/31 03:41:57;;;;;;;10.97;7.70;;;-1.00;99.90;;;;;;5052077;28;21720;-65
2021/01/31 03:44:23;;;;;;;7.67;5.67;;;-1.00;99.90;;;;;;5034516;28;20218;-65
2021/01/31 03:46:59;;;;;;;10.00;6.53;;;-1.10;99.90;;;;;;5034939;28;20195;-65
2021/01/31 03:49:31;;;;;;;11.10;7.50;;;-1.00;99.90;;;;;;5054496;28;20170;-65
2021/01/31 03:51:58;;;;;;;8.67;6.07;;;-1.10;99.90;;;;;;5052907;28;20293;-65
2021/01/31 03:54:24;;;;;;;10.27;6.00;;;-1.10;99.90;;;;;;5034329;28;20172;-65
2021/01/31 03:56:58;;;;;;;9.90;6.50;;;-1.10;99.90;;;;;;5049550;28;20204;-64
2021/01/31 03:59:33;;;;;;;8.93;6.10;;;-1.10;99.90;;;;;;5052553;28;20209;-65
2021/01/31 04:02:00;;;;;;;9.63;6.70;;;-1.10;99.90;;;;;;5038088;28;20175;-65
2021/01/31 04:04:35;;;;;;;9.00;6.40;;;-1.10;99.90;;;;;;5034268;28;20171;-65
2021/01/31 04:07:04;;;;;;;9.23;6.67;;;-1.10;99.90;;;;;;5049105;28;20195;-64
2021/01/31 04:09:33;;;;;;;9.07;6.63;;;-1.10;99.90;;;;;;5051427;28;20163;-65
2021/01/31 04:12:04;;;;;;;11.10;7.20;;;-1.20;99.90;;;;;;5038719;28;20183;-65
2021/01/31 04:14:53;;;;;;;11.60;7.23;;;-1.20;99.90;;;;;;5032873;28;20593;-65
2021/01/31 04:17:20;;;;;;;10.43;6.13;;;-1.20;99.90;;;;;;5044014;28;20247;-65
2021/01/31 04:19:46;;;;;;;13.30;8.07;;;-1.20;99.90;;;;;;5053652;28;20194;-65
2021/01/31 04:22:12;;;;;;;11.33;7.57;;;-1.20;99.90;;;;;;5037847;28;20251;-65
2021/01/31 04:24:37;;;;;;;10.87;6.83;;;-1.20;99.90;;;;;;5033840;28;20199;-65
2021/01/31 04:27:03;;;;;;;13.40;8.03;;;-1.20;99.90;;;;;;5047201;28;20202;-65
2021/01/31 04:29:29;;;;;;;13.40;8.10;;;-1.20;99.90;;;;;;5053731;28;20179;-65
2021/01/31 04:31:55;;;;;;;11.50;7.20;;;-1.20;99.90;;;;;;5040888;28;20832;-65
2021/01/31 04:34:21;;;;;;;11.70;7.63;;;-1.20;99.90;;;;;;5033758;28;20287;-64
2021/01/31 04:36:47;;;;;;;13.37;8.37;;;-1.20;99.90;;;;;;5043844;28;20640;-65
2021/01/31 04:39:13;;;;;;;11.77;7.23;;;-1.20;99.90;;;;;;5053484;28;20198;-65
2021/01/31 04:41:41;;;;;;;11.30;7.57;;;-1.30;99.90;;;;;;5043986;28;20179;-65
2021/01/31 04:44:10;;;;;;;13.60;8.43;;;-1.20;99.90;;;;;;5033352;28;20254;-65
2021/01/31 04:47:16;;;;;;;13.50;7.97;;;-1.30;99.90;;;;;;5040824;28;20290;-65
2021/01/31 04:49:54;;;;;;;10.70;7.77;;;-1.30;99.90;;;;;;5040882;28;20194;-65
2021/01/31 04:52:47;;;;;;;13.70;8.20;;;-1.40;99.90;;;;;;5039779;28;20254;-65
2021/01/31 04:55:51;;;;;;;14.63;7.83;;;-1.40;99.90;;;;;;5033389;28;20562;-64
2021/01/31 04:58:24;;;;;;;13.23;7.77;;;-1.40;99.90;;;;;;4971775;28;20698;-65
2021/01/31 05:00:59;;;;;;;10.80;7.87;;;-1.40;99.90;;;;;;4971939;28;20229;-65
2021/01/31 05:03:27;;;;;;;14.70;9.03;;;-1.50;99.90;;;;;;4995378;28;20653;-65
2021/01/31 05:06:11;;;;;;;14.33;7.97;;;-1.50;99.90;;;;;;5013410;28;20255;-65
2021/01/31 05:08:37;;;;;;;14.43;8.50;;;-1.50;99.90;;;;;;5046172;28;20252;-65
2021/01/31 05:11:23;;;;;;;13.33;7.83;;;-1.50;99.90;;;;;;5052622;28;20576;-65
2021/01/31 05:14:31;;;;;;;12.37;7.47;;;-1.60;99.90;;;;;;5013034;28;20204;-65
2021/01/31 05:16:57;;;;;;;12.47;8.53;;;-1.60;99.90;;;;;;5026201;28;20238;-65
2021/01/31 05:19:29;;;;;;;14.60;9.03;;;-1.60;99.90;;;;;;5052437;28;20226;-65
2021/01/31 05:21:56;;;;;;;14.63;9.00;;;-1.60;99.90;;;;;;5038117;28;20202;-65
2021/01/31 05:24:23;;;;;;;13.93;9.23;;;-1.60;99.90;;;;;;5032821;28;20172;-65
2021/01/31 05:26:57;;;;;;;15.53;8.73;;;-1.60;99.90;;;;;;5044636;28;20595;-65
2021/01/31 05:29:28;;;;;;;15.10;8.57;;;-1.50;99.90;;;;;;5052252;28;20175;-65
2021/01/31 05:32:21;;;;;;;14.60;9.53;;;-1.50;99.90;;;;;;5039734;28;20176;-65
2021/01/31 05:34:55;;;;;;;15.77;7.90;;;-1.50;99.90;;;;;;5032427;28;20241;-64
2021/01/31 05:37:24;;;;;;;15.97;9.20;;;-1.60;99.90;;;;;;5047302;28;20594;-63
2021/01/31 05:39:59;;;;;;;11.90;8.47;;;-1.60;99.90;;;;;;5051994;28;20293;-65
2021/01/31 05:42:31;;;;;;;20.80;9.57;;;-1.70;99.90;;;;;;5036353;28;20177;-64
2021/01/31 05:45:07;;;;;;;13.63;8.50;;;-1.70;99.90;;;;;;5045905;28;20189;-64
2021/01/31 05:47:41;;;;;;;18.07;9.53;;;-1.70;99.90;;;;;;5051399;28;20261;-64
2021/01/31 05:50:32;;;;;;;12.93;9.03;;;-1.70;99.90;;;;;;5037337;28;20358;-65
2021/01/31 05:53:18;;;;;;;13.67;9.20;;;-1.70;99.90;;;;;;5039675;28;20187;-64
2021/01/31 05:55:44;;;;;;;18.90;9.40;;;-1.70;99.90;;;;;;5051745;28;20179;-64
2021/01/31 05:58:22;;;;;;;13.83;8.57;;;-1.80;99.90;;;;;;5042345;28;20209;-64
2021/01/31 06:01:04;;;;;;;16.53;9.97;;;-1.70;99.90;;;;;;5054416;23;20231;-63
2021/01/31 06:03:29;;;;;;;17.07;8.70;;;-1.80;99.90;;;;;;5030925;28;20175;-63
2021/01/31 06:06:14;;;;;;;14.30;9.53;;;-1.80;99.90;;;;;;5031808;28;20164;-64
2021/01/31 06:08:44;;;;;;;15.13;8.87;;;-1.80;99.90;;;;;;5019620;28;20184;-64
2021/01/31 06:11:23;;;;;;;15.47;10.07;;;-1.80;99.90;;;;;;4992367;28;20263;-63
2021/01/31 06:14:15;;;;;;;17.50;10.23;;;-1.80;99.90;;;;;;5004028;28;20190;-63
2021/01/31 06:16:43;;;;;;;14.80;9.33;;;-1.90;99.90;;;;;;5011828;28;20172;-64
2021/01/31 06:19:26;;;;;;;17.20;9.33;;;-1.90;99.90;;;;;;4997449;28;20262;-63
2021/01/31 06:21:51;;;;;;;17.13;9.60;;;-1.90;99.90;;;;;;4992224;28;20199;-64
2021/01/31 06:24:26;;;;;;;15.83;9.43;;;-2.00;99.90;;;;;;5006377;28;20212;-63
2021/01/31 06:26:52;;;;;;;13.93;9.23;;;-2.10;99.90;;;;;;5012211;28;20270;-63
2021/01/31 06:29:49;;;;;;;15.37;9.10;;;-2.10;99.90;;;;;;4997687;28;20208;-63
2021/01/31 06:32:21;;;;;;;17.57;9.43;;;-2.10;99.90;;;;;;4988058;28;20219;-64
2021/01/31 06:34:59;;;;;;;13.10;8.73;;;-2.20;99.90;;;;;;5014539;28;20545;-62
2021/01/31 06:37:36;;;;;;;15.13;9.10;;;-2.10;99.90;;;;;;5010433;28;20208;-64
2021/01/31 06:40:15;;;;;;;17.07;9.93;;;-2.10;99.90;;;;;;4995879;28;20203;-64
2021/01/31 06:43:08;;;;;;;17.17;9.63;;;-2.10;99.90;;;;;;4996552;28;20169;-63
2021/01/31 06:45:40;;;;;;;15.97;9.40;;;-2.10;99.90;;;;;;5015090;28;20172;-64
2021/01/31 06:48:17;;;;;;;19.33;9.83;;;-2.10;99.90;;;;;;5011454;28;20247;-64
2021/01/31 06:51:01;;;;;;;17.17;9.63;;;-2.10;99.90;;;;;;4995658;28;20184;-65
2021/01/31 06:53:54;;;;;;;15.30;9.03;;;-2.20;99.90;;;;;;5001235;28;20222;-64
2021/01/31 06:56:28;;;;;;;16.50;9.53;;;-2.20;99.90;;;;;;5015298;28;20673;-63
2021/01/31 06:59:12;;;;;;;21.37;11.13;;;-2.20;99.90;;;;;;5005936;28;20599;-62
2021/01/31 07:01:58;;;;;;;17.40;10.73;;;-2.20;99.90;;;;;;4994111;28;20552;-63
2021/01/31 07:04:37;;;;;;;18.57;10.47;;;-2.10;99.90;;;;;;5006845;28;20210;-63
2021/01/31 07:07:40;;;;;;;17.23;10.60;;;-2.10;99.90;;;;;;5015008;28;20657;-65
2021/01/31 07:10:21;;;;;;;20.07;10.50;;;-2.00;99.90;;;;;;4997741;28;20605;-62
2021/01/31 07:13:43;;;;;;;24.50;11.77;;;-2.00;99.90;;;;;;4995369;28;20184;-63
2021/01/31 07:16:12;;;;;;;18.83;10.33;;;-2.00;99.90;;;;;;4954437;29;20324;-63
2021/01/31 07:18:58;;;;;;;17.43;10.80;;;-1.90;99.90;;;;;;4953784;28;20209;-62
2021/01/31 07:21:42;;;;;;;19.90;11.17;;;-2.00;99.90;;;;;;4984881;28;20188;-64
2021/01/31 07:24:16;;;;;;;20.00;10.60;;;-1.90;99.90;;;;;;4995576;28;20173;-62
2021/01/31 07:26:51;;;;;;;19.37;11.00;;;-1.90;99.90;;;;;;4999889;28;20641;-61
2021/01/31 07:29:22;;;;;;;20.63;11.07;;;-1.90;99.90;;;;;;5007138;28;20340;-63
2021/01/31 07:31:50;;;;;;;23.13;11.20;;;-1.80;99.90;;;;;;5009582;28;20270;-63
2021/01/31 07:34:45;;;;;;;19.20;11.83;;;-1.80;99.90;;;;;;5001732;28;20208;-63
2021/01/31 07:37:18;;;;;;;22.03;12.20;;;-1.80;99.90;;;;;;5014037;28;20257;-63
2021/01/31 07:40:22;;;;;;;18.50;11.10;;;-1.80;99.90;;;;;;5007581;28;20349;-64
2021/01/31 07:42:52;;;;;;;17.60;11.23;;;-1.80;99.90;;;;;;5008616;28;20200;-63
2021/01/31 07:45:25;;;;;;;18.37;11.40;;;-1.70;99.90;;;;;;5012341;28;20184;-63
2021/01/31 07:48:29;;;;;;;16.47;9.93;;;-1.70;99.90;;;;;;5006398;28;20176;-63
2021/01/31 07:50:56;;;;;;;26.40;10.97;;;-1.70;99.90;;;;;;5012620;28;20192;-63
2021/01/31 07:53:42;;;;;;;20.50;12.90;;;-1.60;99.90;;;;;;5014331;28;20179;-63
2021/01/31 07:56:26;;;;;;;20.97;11.70;;;-1.60;99.90;;;;;;5012438;28;20267;-64
2021/01/31 07:58:54;;;;;;;19.17;11.00;;;-1.50;99.90;;;;;;5007402;28;20230;-63
2021/01/31 08:01:44;;;;;;;21.27;12.87;;;-1.50;99.90;;;;;;5009046;28;20180;-62
2021/01/31 08:04:16;;;;;;;18.80;11.70;;;-1.50;99.90;;;;;;5012566;28;20532;-64
2021/01/31 08:06:57;;;;;;;22.80;11.27;;;-1.40;99.90;;;;;;5013266;28;20238;-63
2021/01/31 08:09:26;;;;;;;16.30;11.00;;;-1.40;99.90;;;;;;5003988;28;20219;-64
2021/01/31 08:12:01;;;;;;;19.10;11.40;;;-1.30;99.90;;;;;;4998749;28;20184;-62
2021/01/31 08:15:05;;;;;;;19.73;10.83;;;-1.30;99.90;;;;;;5003356;28;20254;-64
2021/01/31 08:17:54;;;;;;;21.87;11.77;;;-1.20;99.90;;;;;;5007196;28;20267;-62
2021/01/31 08:20:29;;;;;;;19.77;11.73;;;-0.90;99.90;;;;;;5012894;28;20201;-62
2021/01/31 08:23:00;;;;;;;17.17;10.40;;;-0.50;99.90;;;;;;5010452;28;20187;-63
2021/01/31 08:25:29;;;;;;;15.40;10.27;;;0.00;99.90;;;;;;4993912;28;20650;-63
2021/01/31 08:28:00;;;;;;;15.67;9.70;;;0.50;99.90;;;;;;4993627;28;20246;-65
2021/01/31 08:30:38;;;;;;;13.23;8.10;;;1.00;99.90;;;;;;5012593;28;20279;-62
2021/01/31 08:33:07;;;;;;;14.40;10.17;;;1.50;99.90;;;;;;5010506;28;20172;-64
2021/01/31 08:35:39;;;;;;;12.60;7.87;;;2.00;99.90;;;;;;5013344;28;20168;-63
2021/01/31 08:38:24;;;;;;;12.17;8.13;;;2.40;99.90;;;;;;4996726;28;20169;-62
2021/01/31 08:41:30;;;;;;;12.63;7.87;;;2.70;99.90;;;;;;5000865;28;20240;-63
2021/01/31 08:44:10;;;;;;;12.13;8.37;;;3.10;99.90;;;;;;4993641;28;20180;-64
2021/01/31 08:46:55;;;;;;;11.37;7.70;;;3.20;99.90;;;;;;5002272;28;20211;-64
2021/01/31 08:49:21;;;;;;;12.00;7.83;;;3.30;99.90;;;;;;5012613;28;20222;-63
2021/01/31 08:52:13;;;;;;;11.10;7.77;;;3.50;99.90;;;;;;5013145;28;20269;-64
2021/01/31 08:54:39;;;;;;;11.93;7.63;;;3.60;99.90;;;;;;5011137;28;20246;-64
2021/01/31 08:57:07;;;;;;;9.70;7.30;;;3.80;99.90;;;;;;5010646;28;20184;-63
2021/01/31 08:59:48;;;;;;;11.43;8.07;;;4.00;99.90;;;;;;5001138;28;20294;-63
2021/01/31 09:02:16;;;;;;;9.80;6.87;;;4.10;99.90;;;;;;5009429;28;20184;-64
2021/01/31 09:04:47;;;;;;;12.77;7.87;;;4.10;99.90;;;;;;5000823;28;20303;-64
2021/01/31 09:07:30;;;;;;;10.33;7.27;;;4.20;99.90;;;;;;4995456;28;20184;-63
2021/01/31 09:10:20;;;;;;;13.10;8.37;;;4.40;99.90;;;;;;5007210;28;21218;-63
2021/01/31 09:12:45;;;;;;;12.40;8.20;;;5.00;99.90;;;;;;4993270;28;20173;-63
2021/01/31 09:15:23;;;;;;;9.40;7.53;;;5.30;99.90;;;;;;4996469;28;20253;-63
2021/01/31 09:17:49;;;;;;;10.33;8.20;;;5.20;99.90;;;;;;5006757;28;20188;-63
2021/01/31 09:20:18;;;;;;;9.50;6.90;;;5.00;99.90;;;;;;5007438;28;20204;-64
2021/01/31 09:22:47;;;;;;;12.30;7.77;;;4.60;99.90;;;;;;4993115;28;20288;-63
2021/01/31 09:25:15;;;;;;;8.70;7.20;;;4.60;99.90;;;;;;5002104;28;20175;-61
2021/01/31 09:28:18;;;;;;;9.90;7.17;;;4.70;99.90;;;;;;5011495;28;20187;-63
2021/01/31 09:30:45;;;;;;;9.93;6.90;;;4.70;99.90;;;;;;5012204;28;20294;-63
2021/01/31 09:33:18;;;;;;;10.03;7.63;;;4.70;99.90;;;;;;5011582;28;20198;-64
2021/01/31 09:35:44;;;;;;;9.63;7.37;;;5.00;99.90;;;;;;5012429;28;20549;-63
2021/01/31 09:38:21;;;;;;;9.73;7.57;;;5.00;99.90;;;;;;5011966;28;20251;-63
2021/01/31 09:40:47;;;;;;;8.67;7.13;;;4.80;99.90;;;;;;5011403;28;20191;-65
2021/01/31 09:43:19;;;;;;;11.37;7.17;;;4.40;99.90;;;;;;5012299;28;20172;-64
2021/01/31 09:45:49;;;;;;;9.70;7.00;;;4.20;99.90;;;;;;5006976;28;20180;-64
2021/01/31 09:48:19;;;;;;;8.77;7.50;;;4.00;99.90;;;;;;5000666;28;20358;-64
2021/01/31 09:50:55;;;;;;;10.13;7.73;;;4.00;99.90;;;;;;5012088;28;20677;-64
2021/01/31 09:53:34;;;;;;;10.63;7.30;;;4.00;99.90;;;;;;5010483;28;20637;-64
2021/01/31 09:56:03;;;;;;;10.40;6.83;;;3.90;99.90;;;;;;5012096;28;20164;-64
2021/01/31 09:58:46;;;;;;;9.77;7.23;;;3.80;99.90;;;;;;4997619;28;20295;-64
2021/01/31 10:01:16;;;;;;;10.87;6.90;;;3.60;99.90;;;;;;4992526;28;20208;-64
2021/01/31 10:03:43;;;;;;;10.40;7.03;;;3.70;99.90;;;;;;5006953;28;20295;-64
2021/01/31 10:06:10;;;;;;;10.23;7.40;;;4.10;99.90;;;;;;5012090;28;20184;-64
2021/01/31 10:08:49;;;;;;;9.47;7.10;;;4.40;99.90;;;;;;4997032;28;20212;-63
2021/01/31 10:11:47;;;;;;;9.13;6.63;;;4.70;99.90;;;;;;4992369;28;20260;-64
2021/01/31 10:14:40;;;;;;;8.63;6.13;;;5.00;99.90;;;;;;4998092;28;20571;-64
2021/01/31 10:17:17;;;;;;;7.93;6.47;;;5.30;99.90;;;;;;5011135;28;20669;-64
2021/01/31 10:19:42;;;;;;;9.30;6.53;;;5.60;99.90;;;;;;4991722;28;20211;-62
2021/01/31 10:22:28;;;;;;;7.67;5.77;;;5.70;99.90;;;;;;4992448;28;20173;-64
2021/01/31 10:24:54;;;;;;;7.03;5.03;;;6.00;99.90;;;;;;4991954;28;20234;-64
2021/01/31 10:27:23;;;;;;;8.67;6.60;;;5.90;99.90;;;;;;4991956;28;20181;-65
2021/01/31 10:29:50;;;;;;;7.03;5.87;;;5.70;99.90;;;;;;4991878;28;20284;-63
2021/01/31 10:32:25;;;;;;;8.77;6.20;;;5.40;99.90;;;;;;4992056;28;20173;-63
2021/01/31 10:34:54;;;;;;;8.60;6.50;;;5.20;99.90;;;;;;4992083;28;20231;-65
2021/01/31 10:37:34;;;;;;;11.00;6.97;;;5.20;99.90;;;;;;4991667;28;20181;-63
2021/01/31 10:40:00;;;;;;;10.87;6.60;;;5.40;99.90;;;;;;4991873;28;20283;-64
2021/01/31 10:42:26;;;;;;;10.00;6.57;;;5.70;99.90;;;;;;5010559;28;20172;-64
2021/01/31 10:44:51;;;;;;;8.77;6.50;;;6.00;99.90;;;;;;5011500;28;20176;-61
2021/01/31 10:47:17;;;;;;;8.73;6.30;;;6.20;99.90;;;;;;4993726;28;20173;-64
2021/01/31 10:49:42;;;;;;;5.90;5.13;;;6.30;99.90;;;;;;4991000;28;20703;-65
2021/01/31 10:52:10;;;;;;;7.47;5.83;;;6.50;99.90;;;;;;5007158;28;20199;-64
2021/01/31 10:54:36;;;;;;;8.40;6.23;;;6.40;99.90;;;;;;5011606;28;20179;-63
2021/01/31 10:57:02;;;;;;;7.53;6.00;;;6.30;99.90;;;;;;4997055;28;20180;-62
2021/01/31 10:59:27;;;;;;;9.07;6.13;;;6.20;99.90;;;;;;4991282;28;20208;-64
2021/01/31 11:01:53;;;;;;;9.80;6.27;;;6.50;99.90;;;;;;5003736;28;20654;-64
2021/01/31 11:04:20;;;;;;;6.60;5.27;;;6.70;99.90;;;;;;5011405;28;20566;-62
2021/01/31 11:06:47;;;;;;;8.00;5.93;;;6.70;99.90;;;;;;5000283;28;20189;-64
2021/01/31 11:09:15;;;;;;;7.10;4.47;;;7.10;99.90;;;;;;4998692;28;20200;-64
2021/01/31 11:11:42;;;;;;;4.90;4.00;;;7.30;99.90;;;;;;5011149;28;20191;-65
2021/01/31 11:14:07;;;;;;;4.93;3.37;;;7.20;99.90;;;;;;5004275;28;20188;-64
2021/01/31 11:16:33;;;;;;;5.80;3.77;;;6.60;99.90;;;;;;4991586;28;20551;-64
2021/01/31 11:18:59;;;;;;;3.50;3.10;;;6.40;99.90;;;;;;4997186;28;20654;-64
2021/01/31 11:21:27;;;;;;;3.77;3.37;;;6.50;99.90;;;;;;5014874;28;20168;-64
2021/01/31 11:23:54;;;;;;;4.67;3.73;;;6.20;99.90;;;;;;5010823;28;20264;-64
2021/01/31 11:26:21;;;;;;;3.90;3.50;;;5.80;99.90;;;;;;4995166;28;20256;-63
2021/01/31 11:28:47;;;;;;;4.27;3.53;;;5.50;99.90;;;;;;4996895;28;20700;-65
2021/01/31 11:31:12;;;;;;;4.90;3.80;;;5.10;99.90;;;;;;5014753;28;20292;-65
2021/01/31 11:33:38;;;;;;;5.03;4.43;;;4.90;99.90;;;;;;5013532;28;20169;-65
2021/01/31 11:36:05;;;;;;;5.60;4.93;;;4.70;99.90;;;;;;4995120;28;20183;-64
2021/01/31 11:38:31;;;;;;;4.83;4.33;;;4.60;99.90;;;;;;4994509;28;20209;-64
2021/01/31 11:40:57;;;;;;;4.67;3.50;;;4.30;99.90;;;;;;5013607;28;20665;-65
2021/01/31 11:43:23;;;;;;;3.77;3.40;;;4.20;99.90;;;;;;5006775;28;20211;-65
2021/01/31 11:45:48;;;;;;;4.37;3.97;;;4.00;99.90;;;;;;5006167;28;20188;-64
2021/01/31 11:48:14;;;;;;;7.40;4.50;;;3.90;99.90;;;;;;5000155;28;20192;-64
2021/01/31 11:50:40;;;;;;;4.60;3.70;;;4.00;99.90;;;;;;4994527;28;20212;-64
2021/01/31 11:53:06;;;;;;;5.33;4.07;;;4.10;99.90;;;;;;5006081;28;20259;-64
2021/01/31 11:55:31;;;;;;;4.57;4.13;;;4.00;99.90;;;;;;5014042;28;20175;-64
2021/01/31 11:57:57;;;;;;;5.30;4.30;;;3.80;99.90;;;;;;5003893;28;20224;-62
2021/01/31 12:00:23;;;;;;;5.63;4.30;;;3.90;99.90;;;;;;5029780;23;20672;-65
2021/01/31 12:02:48;;;;;;;6.33;4.50;;;3.80;99.90;;;;;;5034769;28;20207;-64
2021/01/31 12:05:18;;;;;;;6.17;5.20;;;3.80;99.90;;;;;;5036164;28;20174;-67
2021/01/31 12:07:44;;;;;;;5.57;4.73;;;3.80;99.90;;;;;;5027491;28;20176;-66
2021/01/31 12:10:11;;;;;;;5.33;4.10;;;3.90;99.90;;;;;;5006291;28;20734;-65
2021/01/31 12:12:37;;;;;;;4.73;4.10;;;3.90;99.90;;;;;;5000907;28;20267;-65
2021/01/31 12:15:06;;;;;;;5.03;4.17;;;3.90;99.90;;;;;;5015590;28;20235;-66
2021/01/31 12:17:31;;;;;;;6.83;4.23;;;3.80;99.90;;;;;;5010596;28;20284;-66
2021/01/31 12:19:57;;;;;;;7.07;4.50;;;3.70;99.90;;;;;;4996040;28;20725;-65
2021/01/31 12:22:23;;;;;;;5.73;4.30;;;3.60;99.90;;;;;;4997922;28;20565;-66
2021/01/31 12:24:52;;;;;;;5.20;4.07;;;3.60;99.90;;;;;;5015852;28;20183;-66
2021/01/31 12:27:23;;;;;;;5.67;3.93;;;3.70;99.90;;;;;;5014372;28;20173;-63
2021/01/31 12:29:49;;;;;;;4.17;3.57;;;3.70;99.90;;;;;;4995119;28;20283;-66
2021/01/31 12:32:15;;;;;;;4.53;3.80;;;3.80;99.90;;;;;;4994770;28;20248;-66
2021/01/31 12:34:40;;;;;;;4.87;4.13;;;3.80;99.90;;;;;;5015368;28;20194;-66
2021/01/31 12:37:06;;;;;;;4.97;4.47;;;4.00;99.90;;;;;;5013240;28;20183;-65
2021/01/31 12:39:32;;;;;;;5.13;4.07;;;4.30;99.90;;;;;;5014248;28;20286;-65
2021/01/31 12:41:57;;;;;;;5.20;4.40;;;4.80;99.90;;;;;;5004644;28;20212;-65
2021/01/31 12:44:23;;;;;;;5.27;4.57;;;5.30;99.90;;;;;;4992865;28;20677;-65
2021/01/31 12:46:48;;;;;;;4.93;4.27;;;5.70;99.90;;;;;;4998043;28;20187;-66
2021/01/31 12:49:14;;;;;;;4.70;3.57;;;6.00;99.90;;;;;;5003367;28;20196;-66
2021/01/31 12:51:39;;;;;;;5.60;4.33;;;6.00;99.90;;;;;;4993856;28;20262;-64
2021/01/31 12:54:05;;;;;;;4.67;4.10;;;6.00;99.90;;;;;;5007372;28;20180;-66
2021/01/31 12:56:31;;;;;;;5.47;3.97;;;5.90;99.90;;;;;;5012878;28;20191;-66
2021/01/31 12:58:56;;;;;;;4.73;3.83;;;6.00;99.90;;;;;;5002553;28;20284;-66
2021/01/31 13:01:24;;;;;;;4.70;3.83;;;6.00;99.90;;;;;;5007134;28;20258;-64
2021/01/31 13:03:49;;;;;;;6.70;4.33;;;6.20;99.90;;;;;;4996364;28;20642;-66
2021/01/31 13:06:15;;;;;;;4.93;4.43;;;6.20;99.90;;;;;;4994758;28;20165;-66
2021/01/31 13:08:41;;;;;;;5.57;4.80;;;6.10;99.90;;;;;;4994435;28;20212;-66
2021/01/31 13:11:06;;;;;;;4.83;3.97;;;6.30;99.90;;;;;;4994503;28;20304;-65
2021/01/31 13:13:33;;;;;;;5.17;4.50;;;6.70;99.90;;;;;;4994291;28;20264;-66
2021/01/31 13:15:58;;;;;;;4.70;4.03;;;7.30;99.90;;;;;;4993642;28;20192;-64
2021/01/31 13:18:24;;;;;;;5.27;4.10;;;7.60;99.90;;;;;;4993757;28;20251;-65